SNCZ weather

Ponte Nova Airport
Ponte Nova, Minas Gerais, Brazil

Public forecast

Using degrees Celsius for public forecast. Weather courtesy of forecast.io.

METAR (pilot weather report)

Closest report is Usiminas Airport, 61.0 nm (113.0 km) NNE. Retrieved 2019/07/17 19:00 UTC (38 minutes ago):

SBIP 171900Z 18006KT 9999 OVC040 21/12 Q1022

TAF (pilot weather forecast)

Forecast is more than 12 hours old.

Closest forecast is Pampulha - Carlos Drummond de Andrade Airport, 67.1 nm (124.2 km) WNW. Retrieved 2012/03/26 18:12 UTC (7 years ago):

TAF SBBH 261639Z 2618/2706 09005KT 9999 SCT030 TX28/2618Z TN20/2705Z PROB30 2619/2624 8000 TSRA BKN035 FEW045CB RMK PGG